createdAt,value
2023-11-03T00:04:04.326Z,13.99
2023-11-03T00:09:10.131Z,14.12
2023-11-03T00:14:13.903Z,13.82
2023-11-03T00:19:20.895Z,13.78
2023-11-03T00:24:28.623Z,13.60
2023-11-03T00:29:34.704Z,13.93
2023-11-03T00:34:39.195Z,14.09
2023-11-03T00:39:44.752Z,13.89
2023-11-03T00:44:47.752Z,13.73
2023-11-03T00:49:55.335Z,13.81
2023-11-03T00:54:58.209Z,14.20
2023-11-03T01:00:01.848Z,13.97
2023-11-03T01:05:15.416Z,13.79
2023-11-03T01:10:18.551Z,13.59
2023-11-03T01:15:22.638Z,13.74
2023-11-03T01:20:29.280Z,13.81
2023-11-03T01:25:33.058Z,13.45
2023-11-03T01:30:35.899Z,13.72
2023-11-03T01:35:42.511Z,13.49
2023-11-03T01:40:46.560Z,13.64
2023-11-03T01:45:49.418Z,13.56
2023-11-03T01:50:53.596Z,13.40
2023-11-03T01:55:57.012Z,13.26
2023-11-03T02:01:00.028Z,13.27
2023-11-03T02:06:05.080Z,13.04
2023-11-03T02:11:08.378Z,13.10
2023-11-03T02:16:11.409Z,12.95
2023-11-03T02:21:16.168Z,13.05
2023-11-03T02:26:20.308Z,12.59
2023-11-03T02:31:23.137Z,13.13
2023-11-03T02:36:26.511Z,13.04
2023-11-03T02:41:30.678Z,13.26
2023-11-03T02:46:33.514Z,13.19
2023-11-03T02:51:36.289Z,13.04
2023-11-03T02:56:40.518Z,13.27
2023-11-03T03:01:43.477Z,13.10
2023-11-03T03:06:47.352Z,13.44
2023-11-03T03:11:51.563Z,13.22
2023-11-03T03:16:54.697Z,13.75
2023-11-03T03:21:57.604Z,13.51
2023-11-03T03:27:01.825Z,13.33
2023-11-03T03:32:05.081Z,13.38
2023-11-03T03:37:07.853Z,13.23
2023-11-03T03:42:12.241Z,12.95
2023-11-03T03:47:15.346Z,13.00
2023-11-03T03:52:18.147Z,12.87
2023-11-03T03:57:22.319Z,12.83
2023-11-03T04:02:25.214Z,13.16
2023-11-03T04:07:28.042Z,13.18
2023-11-03T04:12:32.185Z,13.14
2023-11-03T04:17:35.097Z,12.87
2023-11-03T04:22:38.409Z,13.00
2023-11-03T04:27:43.095Z,12.61
2023-11-03T04:32:46.024Z,12.94
2023-11-03T04:37:51.060Z,12.80
2023-11-03T04:42:55.280Z,13.03
2023-11-03T04:47:58.180Z,12.82
2023-11-03T04:53:01.003Z,12.86
2023-11-03T04:58:05.316Z,12.58
2023-11-03T05:03:08.278Z,12.96
2023-11-03T05:08:11.331Z,12.92
2023-11-03T05:13:17.088Z,12.93
2023-11-03T05:18:20.021Z,13.08
2023-11-03T05:23:22.886Z,12.74
2023-11-03T05:28:27.112Z,13.27
2023-11-03T05:33:30.048Z,12.82
2023-11-03T05:38:32.987Z,13.10
2023-11-03T05:43:38.138Z,13.06
2023-11-03T05:48:40.998Z,12.82
2023-11-03T05:53:43.845Z,13.19
2023-11-03T05:58:48.189Z,12.98
2023-11-03T06:03:51.255Z,13.47
2023-11-03T06:08:54.170Z,12.79
2023-11-03T06:13:58.412Z,13.32
2023-11-03T06:19:01.292Z,12.98
2023-11-03T06:24:04.232Z,13.06
2023-11-03T06:29:08.426Z,13.27
2023-11-03T06:34:11.325Z,13.15
2023-11-03T06:39:16.243Z,12.73
2023-11-03T06:44:20.589Z,13.31
2023-11-03T06:49:23.580Z,13.25
2023-11-03T06:54:27.538Z,13.21
2023-11-03T06:59:32.018Z,13.37
2023-11-03T07:04:36.110Z,13.44
2023-11-03T07:09:38.938Z,12.89
2023-11-03T07:14:43.150Z,13.36
2023-11-03T07:19:46.211Z,13.39
2023-11-03T07:24:49.153Z,13.62
2023-11-03T07:29:53.604Z,13.94
2023-11-03T07:34:56.401Z,13.74
2023-11-03T07:39:59.574Z,13.81
2023-11-03T07:45:03.970Z,13.81
2023-11-03T07:50:08.495Z,13.76
2023-11-03T07:55:12.866Z,13.70
2023-11-03T08:00:21.184Z,14.08
2023-11-03T08:05:25.778Z,13.95
2023-11-03T08:10:28.763Z,14.11
2023-11-03T08:15:33.921Z,14.19
2023-11-03T08:20:36.744Z,14.05
2023-11-03T08:25:39.831Z,13.94
2023-11-03T08:30:44.036Z,14.00
2023-11-03T08:35:47.212Z,13.98
2023-11-03T08:40:51.077Z,13.77
2023-11-03T08:45:55.357Z,13.99
2023-11-03T08:50:58.873Z,13.77
2023-11-03T08:56:03.070Z,13.45
2023-11-03T09:01:08.167Z,13.63
2023-11-03T09:06:13.243Z,13.80
2023-11-03T09:11:17.078Z,13.78
2023-11-03T09:16:22.224Z,13.64
2023-11-03T09:21:28.009Z,13.22
2023-11-03T09:26:31.247Z,13.76
2023-11-03T09:31:35.456Z,14.08
2023-11-03T09:36:39.254Z,14.35
2023-11-03T09:41:49.851Z,13.82
2023-11-03T09:46:55.836Z,14.26
2023-11-03T09:52:04.354Z,13.82
2023-11-03T09:57:09.557Z,13.90
2023-11-03T10:02:20.418Z,13.83
2023-11-03T10:07:28.623Z,14.42
2023-11-03T10:12:34.204Z,14.13
2023-11-03T10:17:38.600Z,14.22
2023-11-03T10:22:41.568Z,14.98
2023-11-03T10:27:52.804Z,14.51
2023-11-03T10:32:57.661Z,14.75
2023-11-03T10:38:02.351Z,14.70
2023-11-03T10:43:08.966Z,14.92
2023-11-03T10:48:20.366Z,15.56
2023-11-03T10:53:29.873Z,15.06
2023-11-03T10:58:34.441Z,15.39
2023-11-03T11:03:46.918Z,15.65
2023-11-03T11:08:52.648Z,14.98
2023-11-03T11:13:55.631Z,15.60
2023-11-03T11:19:03.667Z,15.45
2023-11-03T11:24:08.149Z,15.83
2023-11-03T11:29:25.584Z,15.98
2023-11-03T11:34:29.958Z,15.74
2023-11-03T11:39:32.755Z,15.88
2023-11-03T11:44:36.373Z,16.00
2023-11-03T11:49:41.648Z,15.57
2023-11-03T11:54:45.100Z,15.79
2023-11-03T11:59:51.733Z,15.97
2023-11-03T12:04:57.041Z,15.45
2023-11-03T12:09:59.941Z,16.12
2023-11-03T12:15:03.980Z,16.59
2023-11-03T12:20:14.428Z,16.56
2023-11-03T12:25:17.497Z,15.95
2023-11-03T12:30:21.610Z,16.36
2023-11-03T12:35:28.749Z,16.47
2023-11-03T12:40:31.786Z,16.49
2023-11-03T12:45:34.674Z,16.60
2023-11-03T12:50:40.697Z,15.95
2023-11-03T12:55:46.254Z,16.03
2023-11-03T13:00:50.900Z,16.33
2023-11-03T13:05:55.208Z,16.16
2023-11-03T13:10:58.118Z,15.84
2023-11-03T13:16:01.954Z,15.70
2023-11-03T13:21:06.989Z,16.08
2023-11-03T13:26:10.881Z,16.77
2023-11-03T13:31:14.275Z,16.66
2023-11-03T13:36:18.599Z,16.53
2023-11-03T13:41:21.694Z,16.40
2023-11-03T13:46:24.604Z,16.37
2023-11-03T13:51:30.131Z,16.39
2023-11-03T13:56:33.026Z,16.39
2023-11-03T14:01:37.572Z,15.57
2023-11-03T14:06:42.479Z,15.69
2023-11-03T14:11:49.335Z,15.73
2023-11-03T14:16:52.590Z,15.58
2023-11-03T14:21:56.822Z,15.55
2023-11-03T14:26:59.902Z,15.24
2023-11-03T14:32:02.867Z,15.45
2023-11-03T14:37:11.435Z,15.31
2023-11-03T14:42:15.678Z,15.45
2023-11-03T14:47:18.571Z,15.16
2023-11-03T14:52:23.089Z,15.16
2023-11-03T14:57:25.940Z,15.25
2023-11-03T15:02:29.121Z,15.34
2023-11-03T15:07:33.930Z,15.13
2023-11-03T15:12:39.733Z,15.18
2023-11-03T15:17:45.355Z,15.05
2023-11-03T15:22:51.528Z,14.80
2023-11-03T15:27:54.495Z,14.68
2023-11-03T15:32:57.453Z,14.78
2023-11-03T15:38:01.842Z,14.76
2023-11-03T15:43:04.796Z,14.48
2023-11-03T15:48:08.143Z,14.15
2023-11-03T15:53:17.074Z,13.93
2023-11-03T15:58:20.744Z,13.89
2023-11-03T16:03:23.994Z,14.26
2023-11-03T16:08:28.569Z,13.94
2023-11-03T16:13:31.847Z,14.25
2023-11-03T16:18:34.861Z,14.11
2023-11-03T16:23:39.708Z,13.76
2023-11-03T16:28:42.670Z,13.89
2023-11-03T16:33:45.577Z,14.26
2023-11-03T16:38:53.681Z,14.02
2023-11-03T16:43:57.004Z,14.39
2023-11-03T16:49:00.125Z,14.52
2023-11-03T16:54:04.504Z,14.40
2023-11-03T16:59:08.082Z,14.25
2023-11-03T17:04:11.731Z,14.05
2023-11-03T17:09:20.945Z,14.23
2023-11-03T17:14:23.941Z,14.18
2023-11-03T17:19:26.976Z,14.45
2023-11-03T17:24:31.575Z,14.36
2023-11-03T17:29:36.858Z,14.09
2023-11-03T17:34:39.874Z,14.62
2023-11-03T17:39:47.754Z,14.49
2023-11-03T17:44:51.803Z,14.58
2023-11-03T17:49:54.712Z,14.21
2023-11-03T17:54:59.343Z,14.17
2023-11-03T18:00:04.464Z,13.98
2023-11-03T18:05:16.856Z,13.93
2023-11-03T18:10:23.082Z,13.80
2023-11-03T18:15:25.984Z,13.49
2023-11-03T18:20:29.990Z,13.67
2023-11-03T18:25:34.334Z,13.86
2023-11-03T18:30:37.683Z,13.79
2023-11-03T18:35:40.802Z,13.77
2023-11-03T18:40:45.449Z,13.63
2023-11-03T18:45:48.400Z,13.77
2023-11-03T18:51:24.767Z,13.55
2023-11-03T18:57:44.521Z,13.47
2023-11-03T19:02:18.491Z,13.63
2023-11-03T19:07:32.593Z,13.11
2023-11-03T19:12:34.205Z,13.37
2023-11-03T19:17:39.557Z,13.30
2023-11-03T19:22:43.283Z,12.95
2023-11-03T19:27:47.776Z,13.05
2023-11-03T19:32:51.371Z,12.83
2023-11-03T19:37:54.341Z,13.19
2023-11-03T19:42:58.552Z,13.54
2023-11-03T19:48:01.447Z,13.00
2023-11-03T19:53:04.502Z,12.88
2023-11-03T19:58:09.993Z,13.24
2023-11-03T20:03:12.974Z,13.13
2023-11-03T20:08:17.289Z,13.44
2023-11-03T20:13:21.603Z,13.21
2023-11-03T20:18:24.726Z,13.20
2023-11-03T20:23:30.295Z,13.23
2023-11-03T20:28:34.648Z,13.05
2023-11-03T20:33:37.590Z,12.93
2023-11-03T20:38:40.448Z,12.74
2023-11-03T20:43:44.901Z,12.79
2023-11-03T20:48:49.080Z,12.91
2023-11-03T20:53:52.107Z,12.55
2023-11-03T20:58:56.305Z,12.75
2023-11-03T21:03:59.278Z,12.87
2023-11-03T21:09:02.272Z,12.72
2023-11-03T21:14:06.477Z,12.45
2023-11-03T21:19:09.676Z,12.47
2023-11-03T21:24:12.556Z,12.81
2023-11-03T21:29:19.275Z,12.35
2023-11-03T21:34:22.185Z,12.49
2023-11-03T21:39:25.702Z,12.29
2023-11-03T21:44:30.724Z,12.38
2023-11-03T21:49:33.600Z,12.08
2023-11-03T21:54:39.655Z,12.42
2023-11-03T21:59:43.832Z,12.25
2023-11-03T22:04:46.810Z,12.40
2023-11-03T22:09:49.836Z,12.26
2023-11-03T22:14:54.146Z,12.14
2023-11-03T22:19:56.963Z,12.04
2023-11-03T22:24:59.796Z,11.77
2023-11-03T22:30:04.078Z,12.07
2023-11-03T22:35:07.156Z,12.07
2023-11-03T22:40:12.772Z,11.81
2023-11-03T22:45:17.406Z,11.55
2023-11-03T22:50:20.436Z,11.99
2023-11-03T22:55:23.582Z,11.92
2023-11-03T23:00:31.416Z,11.73
2023-11-03T23:05:40.445Z,11.74
2023-11-03T23:10:44.495Z,11.81
2023-11-03T23:15:48.728Z,11.49
2023-11-03T23:20:51.497Z,11.99
2023-11-03T23:25:54.512Z,12.12
2023-11-03T23:30:58.648Z,12.16
2023-11-03T23:36:01.500Z,12.11
2023-11-03T23:41:04.841Z,11.58
2023-11-03T23:46:10.998Z,12.00
2023-11-03T23:51:13.939Z,11.61
2023-11-03T23:56:16.777Z,11.75
